Buoy 33964

sailwx.info

Track history (hours):
 
Tides and Currents Weather Stations Pressure Air Temp Water Temp Dewpoint Dewpoint Depression Visibility Wind Speed Wind Dir Waves Ship Positions

Drifting buoy 33964

Last reported at 2017-Dec-15 12:00 UTC. Time now 2017-Dec-15 14:07 UTC.
Position S 38°49' E 025°05'.

Barometer 1016.5 mb
Water temperature 16.2 ° C

Date/timePositionNaut miles runAvg speedWind from/ knotsBaromVisibWave heightAir tempDewpointWater temp
2017-Dec-15 12:00S 38°49' E 025°05'2 0.6 1016.5 16.2
2017-Dec-15 08:00S 38°50' E 025°04'3 2.8 1017.3 18.9
2017-Dec-15 07:00S 38°53' E 025°02'4 3.7 1017.7 18.9
2017-Dec-15 06:00S 38°55' E 024°58'2 2.2 1017.8 18.9
2017-Dec-15 05:00S 38°56' E 024°55'3 2.6 1018.0 18.8
2017-Dec-15 04:00S 38°57' E 024°52'4 3.7 1018.0 18.8
2017-Dec-15 03:00S 38°59' E 024°48'5 4.8 1018.0 18.7
2017-Dec-15 02:00S 39°01' E 024°43'1312.5 1018.2 18.6
2017-Dec-15 01:00S 39°08' E 024°29'1312.5 1018.5 18.6
2017-Dec-15 00:00S 39°01' E 024°43'13 6.3 1019.0 18.6
2017-Dec-14 22:00S 39°08' E 024°29'2 2.2 1019.7 18.6
2017-Dec-14 21:00S 39°10' E 024°27'7 7.0 1019.8 18.6
2017-Dec-14 20:00S 39°13' E 024°19'0 0.0 1019.7 18.6
2017-Dec-14 19:00S 39°13' E 024°19'0 0.5 1020.0 18.6
2017-Dec-14 18:00S 39°13' E 024°19'6 5.9 1019.7 18.7
2017-Dec-14 17:00S 39°17' E 024°13'3 3.3 1019.4 18.6
2017-Dec-14 16:00S 39°19' E 024°09'2 1.5 1019.0 18.7
2017-Dec-14 15:00S 39°20' E 024°08'4 3.9 1019.0 18.8
2017-Dec-14 14:00S 39°21' E 024°03'0 0.0 1019.0 18.8
2017-Dec-14 13:00S 39°21' E 024°03'15 3.7 1019.2 18.9
2017-Dec-14 09:00S 39°29' E 023°47'0 0.0 1019.2 18.9
2017-Dec-14 08:00S 39°29' E 023°47'6 3.2 1018.8 19.0
2017-Dec-14 06:00S 39°31' E 023°39'2 1.5 1018.0 19.0
2017-Dec-14 05:00S 39°32' E 023°38'5 4.5 1017.3 18.9
2017-Dec-14 04:00S 39°34' E 023°32'5 5.1 1016.5 18.8
2017-Dec-14 03:00S 39°37' E 023°27'0 0.0 1016.2 18.9
2017-Dec-14 01:00S 39°37' E 023°27'0 0.0 1015.1 18.9
2017-Dec-14 00:00S 39°37' E 023°27'11 3.7 1014.7 18.6
2017-Dec-13 21:00S 39°43' E 023°15'2 2.2 1013.1 18.1
2017-Dec-13 20:00S 39°44' E 023°13'2 1.9 1012.6 17.9
2017-Dec-13 19:00S 39°45' E 023°10'2 1.5 1011.7 17.9
2017-Dec-13 18:00S 39°46' E 023°09'4 4.1 1010.5 17.7
2017-Dec-13 17:00S 39°48' E 023°04'3 2.9 1009.4 17.6
2017-Dec-13 16:00S 39°50' E 023°01'0 0.0 1008.2 17.3
2017-Dec-13 15:00S 39°50' E 023°01'4 3.7 1007.3 16.9
2017-Dec-13 14:00S 39°52' E 022°57'0 0.0 1006.5 16.4
2017-Dec-13 13:00S 39°52' E 022°57'8 1.6 1005.5 16.1
2017-Dec-13 08:00S 39°59' E 022°52'4 2.1 1001.8 15.8
2017-Dec-13 06:00S 40°03' E 022°52'1 0.8 1001.0 16.0
2017-Dec-13 05:00S 40°04' E 022°51'1 0.8 999.9 16.1
2017-Dec-13 04:00S 40°04' E 022°52'1 0.6 999.3 16.1
2017-Dec-13 03:00S 40°05' E 022°52'0 0.0 999.5 16.1
2017-Dec-13 02:00S 40°05' E 022°52'2 2.0 1000.4 16.1
2017-Dec-13 01:00S 40°07' E 022°53'0 0.0 1001.8 16.1
2017-Dec-13 00:00S 40°07' E 022°53'0 0.0 1003.8 16.1
2017-Dec-12 23:00S 40°07' E 022°53'3 3.0 1005.6 16.1
2017-Dec-12 22:00S 40°08' E 022°56'0 0.0 1007.4 16.1
2017-Dec-12 21:00S 40°08' E 022°56'3 2.6 1008.9 16.1
2017-Dec-12 20:00S 40°10' E 022°58'2 1.5 1009.9 16.1
2017-Dec-12 19:00S 40°11' E 022°59'3 2.6 1010.4 16.1
2017-Dec-12 18:00S 40°14' E 023°00'0 0.0 1010.7 16.2
2017-Dec-12 17:00S 40°14' E 023°00'5 4.8 1011.2 16.2
2017-Dec-12 16:00S 40°18' E 023°03'11 5.4 1010.8 16.3
2017-Dec-12 14:00S 40°28' E 023°10'1110.8 1011.1 16.4
2017-Dec-12 13:00S 40°18' E 023°03'11 2.7 1011.1 16.4
2017-Dec-12 09:00S 40°28' E 023°10'0 0.0 1011.6 16.3
2017-Dec-12 08:00S 40°28' E 023°10'2 2.3 1012.0 16.3
2017-Dec-12 07:00S 40°29' E 023°11'4 3.8 1012.3 16.4
2017-Dec-12 06:00S 40°32' E 023°14'0 0.0 1012.3 16.3
2017-Dec-12 05:00S 40°32' E 023°14'7 7.3 1011.9 16.1
2017-Dec-12 04:00S 40°38' E 023°20'0 0.0 1011.8 16.1
2017-Dec-12 01:00S 40°38' E 023°20'9 8.5 1011.6 16.1
2017-Dec-12 00:00S 40°46' E 023°26'6 5.5 1011.5 16.1
2017-Dec-11 23:00S 40°41' E 023°22'7 3.7 1011.6 16.0
2017-Dec-11 21:00S 40°47' E 023°26'1 1.1 1011.8 16.2
2017-Dec-11 20:00S 40°48' E 023°28'2 1.5 1011.9 16.4
2017-Dec-11 19:00S 40°49' E 023°29'2 1.5 1011.7 16.5
2017-Dec-11 18:00S 40°50' E 023°30'4 1.8 1011.7 16.6
2017-Dec-11 16:00S 40°53' E 023°32'2 2.0 1012.0 16.9
2017-Dec-11 15:00S 40°55' E 023°34'1110.6 1012.2 17.0
2017-Dec-11 14:00S 41°05' E 023°37'10 9.5 1012.7 17.1
2017-Dec-11 13:00S 40°56' E 023°33'12 2.0 1013.2 17.1
2017-Dec-11 07:00S 41°08' E 023°38'1 1.2 1016.1 16.9
2017-Dec-11 06:00S 41°09' E 023°38'1 1.3 1016.5 16.8
2017-Dec-11 05:00S 41°10' E 023°38'1 1.3 1016.9 16.9
2017-Dec-11 04:00S 41°11' E 023°38'1 0.8 1017.2 16.9
2017-Dec-11 03:00S 41°12' E 023°37'2 2.4 1017.3 17.0
2017-Dec-11 02:00S 41°14' E 023°37'2 1.8 1017.7 17.1
2017-Dec-11 01:00S 41°16' E 023°37'4 4.2 1017.8 17.1
2017-Dec-11 00:00S 41°20' E 023°37'4 4.2 1018.5 17.1
2017-Dec-10 23:00S 41°16' E 023°37'4 2.1 1019.0 17.1
2017-Dec-10 21:00S 41°20' E 023°37'2 1.9 1019.6 17.1
2017-Dec-10 20:00S 41°22' E 023°38'0 0.0 1020.1 17.1
2017-Dec-10 19:00S 41°22' E 023°38'1 1.2 1020.4 17.2
2017-Dec-10 18:00S 41°23' E 023°38'4 4.2 1020.4 17.2
2017-Dec-10 17:00S 41°28' E 023°38'1 1.5 1020.4 17.2
2017-Dec-10 16:00S 41°29' E 023°37'3 3.0 1020.4 17.2
2017-Dec-10 15:00S 41°31' E 023°35'1110.8 1020.4 17.2
2017-Dec-10 14:00S 41°41' E 023°28'2 0.3 1021.0 17.2
2017-Dec-10 08:00S 41°43' E 023°28'1 1.3 1022.8 17.2
2017-Dec-10 07:00S 41°44' E 023°27'3 2.9 1022.8 17.2
2017-Dec-10 06:00S 41°46' E 023°24'2 1.8 1022.7 17.2
2017-Dec-10 05:00S 41°47' E 023°22'3 3.5 1022.5 17.2
2017-Dec-10 04:00S 41°50' E 023°20'0 0.0 1022.5 17.2
2017-Dec-10 03:00S 41°50' E 023°20'0 0.0 1022.5 17.3
2017-Dec-10 02:00S 41°50' E 023°20'3 2.6 1022.5 17.2
2017-Dec-10 01:00S 41°52' E 023°19'6 5.8 1022.8 17.2
2017-Dec-10 00:00S 41°58' E 023°16'6 5.8 1023.2 17.2
2017-Dec-09 23:00S 41°52' E 023°19'6 2.9 1023.6 17.2
2017-Dec-09 21:00S 41°58' E 023°16'4 4.0 1024.3 17.3
2017-Dec-09 20:00S 42°01' E 023°13'2 1.8 1024.4 17.3
2017-Dec-09 19:00S 42°02' E 023°11'7 2.5 1024.1 17.3
2017-Dec-09 16:00S 42°08' E 023°05'0 0.0 1023.5 17.4
2017-Dec-09 15:00S 42°08' E 023°05'1010.4 1023.1 17.4
2017-Dec-09 14:00S 42°16' E 022°55'0 0.0 1022.7 17.4
2017-Dec-09 13:00S 42°16' E 022°55'0 0.0 1022.5 17.4
2017-Dec-09 09:00S 42°16' E 022°55'3 3.5 1021.2 17.3
2017-Dec-09 08:00S 42°19' E 022°53'1 0.4 1020.8 17.2
2017-Dec-09 06:00S 42°19' E 022°52'3 2.6 1019.2 17.2
2017-Dec-09 05:00S 42°21' E 022°50'3 2.6 1018.2 17.3
2017-Dec-09 04:00S 42°23' E 022°49'0 0.0 1017.1 17.3
2017-Dec-09 03:00S 42°23' E 022°49'1 1.5 1016.1 17.3
2017-Dec-09 02:00S 42°25' E 022°48'4 3.7 1015.1 17.3
2017-Dec-09 01:00S 42°28' E 022°45'7 6.5 1014.3 17.4
2017-Dec-09 00:00S 42°32' E 022°39'1 0.5 1013.6 17.4
2017-Dec-08 21:00S 42°33' E 022°37'3 2.9 1011.4 17.6
2017-Dec-08 20:00S 42°34' E 022°34'4 4.0 1011.1 17.7
2017-Dec-08 19:00S 42°35' E 022°28'0 0.0 1010.5 17.7
2017-Dec-08 18:00S 42°35' E 022°28'2 1.8 1010.2 17.6
2017-Dec-08 17:00S 42°35' E 022°26'0 0.0 1010.2 17.6
2017-Dec-08 16:00S 42°35' E 022°26'3 2.7 1010.4 17.6
2017-Dec-08 15:00S 42°35' E 022°22'4 4.0 1010.7 17.6
2017-Dec-08 14:00S 42°35' E 022°17'9 8.9 1011.3 17.8
2017-Dec-08 13:00S 42°32' E 022°05'2 0.5 1011.9 17.8
2017-Dec-08 08:00S 42°31' E 022°02'1 1.3 1016.1 17.6
2017-Dec-08 07:00S 42°31' E 022°01'3 2.7 1016.6 17.6
2017-Dec-08 06:00S 42°31' E 021°57'3 2.9 1016.8 17.6
2017-Dec-08 05:00S 42°29' E 021°53'0 0.0 1017.2 17.6
2017-Dec-08 04:00S 42°29' E 021°53'3 2.5 1017.7 17.6
2017-Dec-08 03:00S 42°28' E 021°50'0 0.0 1018.4 17.6
2017-Dec-08 02:00S 42°28' E 021°50'2 2.3 1018.8 17.6
2017-Dec-08 01:00S 42°28' E 021°47'4 4.4 1019.5 17.6
2017-Dec-08 00:00S 42°26' E 021°42'1 0.6 1020.4 17.4
2017-Dec-07 22:00S 42°25' E 021°41'0 0.0 1021.4 17.6
2017-Dec-07 21:00S 42°25' E 021°41'3 2.5 1021.6 17.6
2017-Dec-07 20:00S 42°23' E 021°39'0 0.4 1022.0 17.6
2017-Dec-07 19:00S 42°23' E 021°38'3 3.0 1021.9 17.6
2017-Dec-07 18:00S 42°20' E 021°36'0 0.0 1021.9 17.7
2017-Dec-07 17:00S 42°20' E 021°36'2 1.1 1022.2 17.8
2017-Dec-07 15:00S 42°19' E 021°34'10 5.1 1023.3 17.7
2017-Dec-07 13:00S 42°11' E 021°26'8 8.0 1024.5 17.1
2017-Dec-07 12:00S 42°17' E 021°32'8 2.7 1025.0 16.8
2017-Dec-07 09:00S 42°11' E 021°26'1 1.5 1025.6 16.6
2017-Dec-07 08:00S 42°10' E 021°25'1 1.3 1025.5 16.4
2017-Dec-07 07:00S 42°08' E 021°24'3 3.3 1025.8 15.9
2017-Dec-07 06:00S 42°05' E 021°22'3 3.0 1026.4 15.8
2017-Dec-07 05:00S 42°02' E 021°22'0 0.0 1026.5 15.9
2017-Dec-07 04:00S 42°02' E 021°22'2 1.9 1026.4 16.1
2017-Dec-07 03:00S 42°01' E 021°22'0 0.0 1026.7 16.2
2017-Dec-07 02:00S 42°01' E 021°22'9 8.7 1026.9 16.3
2017-Dec-07 01:00S 41°52' E 021°19'6 5.6 1026.6 16.4
2017-Dec-07 00:00S 41°58' E 021°20'7 2.3 1027.5 16.4
2017-Dec-06 21:00S 41°51' E 021°18'2 1.9 1028.2 16.8
2017-Dec-06 20:00S 41°49' E 021°19'4 3.7 1028.0 16.9
2017-Dec-06 19:00S 41°46' E 021°17'0 0.0 1028.0 17.0
2017-Dec-06 18:00S 41°46' E 021°17'3 3.0 1027.7 17.1
2017-Dec-06 17:00S 41°43' E 021°18'3 1.5 1027.6 16.7
2017-Dec-06 15:00S 41°40' E 021°19'4 3.8 1027.5 16.9
2017-Dec-06 14:00S 41°36' E 021°20'0 0.0 1027.8 17.2
2017-Dec-06 13:00S 41°36' E 021°20'13 1.9 1028.5 17.1
2017-Dec-06 06:00S 41°25' E 021°31'2 1.1 1030.0 15.7
2017-Dec-06 04:00S 41°23' E 021°32'2 1.8 1029.7 15.6
2017-Dec-06 03:00S 41°22' E 021°34'3 2.8 1029.5 15.7
2017-Dec-06 02:00S 41°20' E 021°36'0 0.0 1029.4 15.8
2017-Dec-06 01:00S 41°20' E 021°36'0 0.0 1029.4 15.9
2017-Dec-06 00:00S 41°20' E 021°36'7 2.4 1029.9 15.4
2017-Dec-05 21:00S 41°14' E 021°43'6 5.8 1030.3 15.6
2017-Dec-05 20:00S 41°11' E 021°49'0 0.0 1030.2 15.6
2017-Dec-05 19:00S 41°11' E 021°49'4 3.7 1029.8 15.7
2017-Dec-05 18:00S 41°10' E 021°53'0 0.0 1029.5 15.7
2017-Dec-05 17:00S 41°10' E 021°53'1 1.5 1029.1 15.7
2017-Dec-05 16:00S 41°10' E 021°55'4 3.6 1028.7 15.8
2017-Dec-05 15:00S 41°10' E 022°00'1 1.1 1028.6 15.8
2017-Dec-05 14:00S 41°09' E 022°01'0 0.0 1028.2 15.8
2017-Dec-05 13:00S 41°09' E 022°01'   1028.1 15.8
Track history (hours):
 
Tides and Currents Weather Stations Pressure Air Temp Water Temp Dewpoint Dewpoint Depression Visibility Wind Speed Wind Dir Waves Ship Positions

Drifting buoy 33964

Last reported at 2017-Dec-15 12:00 UTC. Time now 2017-Dec-15 14:07 UTC.
Position S 38°49' E 025°05'.

Barometer 1016.5 mb
Water temperature 16.2 ° C

Date/timePositionNaut miles runAvg speedWind from/ knotsBaromVisibWave heightAir tempDewpointWater temp
2017-Dec-15 12:00S 38°49' E 025°05'2 0.6 1016.5 16.2
2017-Dec-15 08:00S 38°50' E 025°04'3 2.8 1017.3 18.9
2017-Dec-15 07:00S 38°53' E 025°02'4 3.7 1017.7 18.9
2017-Dec-15 06:00S 38°55' E 024°58'2 2.2 1017.8 18.9
2017-Dec-15 05:00S 38°56' E 024°55'3 2.6 1018.0 18.8
2017-Dec-15 04:00S 38°57' E 024°52'4 3.7 1018.0 18.8
2017-Dec-15 03:00S 38°59' E 024°48'5 4.8 1018.0 18.7
2017-Dec-15 02:00S 39°01' E 024°43'1312.5 1018.2 18.6
2017-Dec-15 01:00S 39°08' E 024°29'1312.5 1018.5 18.6
2017-Dec-15 00:00S 39°01' E 024°43'13 6.3 1019.0 18.6
2017-Dec-14 22:00S 39°08' E 024°29'2 2.2 1019.7 18.6
2017-Dec-14 21:00S 39°10' E 024°27'7 7.0 1019.8 18.6
2017-Dec-14 20:00S 39°13' E 024°19'0 0.0 1019.7 18.6
2017-Dec-14 19:00S 39°13' E 024°19'0 0.5 1020.0 18.6
2017-Dec-14 18:00S 39°13' E 024°19'6 5.9 1019.7 18.7
2017-Dec-14 17:00S 39°17' E 024°13'3 3.3 1019.4 18.6
2017-Dec-14 16:00S 39°19' E 024°09'2 1.5 1019.0 18.7
2017-Dec-14 15:00S 39°20' E 024°08'4 3.9 1019.0 18.8
2017-Dec-14 14:00S 39°21' E 024°03'0 0.0 1019.0 18.8
2017-Dec-14 13:00S 39°21' E 024°03'15 3.7 1019.2 18.9
2017-Dec-14 09:00S 39°29' E 023°47'0 0.0 1019.2 18.9
2017-Dec-14 08:00S 39°29' E 023°47'6 3.2 1018.8 19.0
2017-Dec-14 06:00S 39°31' E 023°39'2 1.5 1018.0 19.0
2017-Dec-14 05:00S 39°32' E 023°38'5 4.5 1017.3 18.9
2017-Dec-14 04:00S 39°34' E 023°32'5 5.1 1016.5 18.8
2017-Dec-14 03:00S 39°37' E 023°27'0 0.0 1016.2 18.9
2017-Dec-14 01:00S 39°37' E 023°27'0 0.0 1015.1 18.9
2017-Dec-14 00:00S 39°37' E 023°27'11 3.7 1014.7 18.6
2017-Dec-13 21:00S 39°43' E 023°15'2 2.2 1013.1 18.1
2017-Dec-13 20:00S 39°44' E 023°13'2 1.9 1012.6 17.9
2017-Dec-13 19:00S 39°45' E 023°10'2 1.5 1011.7 17.9
2017-Dec-13 18:00S 39°46' E 023°09'4 4.1 1010.5 17.7
2017-Dec-13 17:00S 39°48' E 023°04'3 2.9 1009.4 17.6
2017-Dec-13 16:00S 39°50' E 023°01'0 0.0 1008.2 17.3
2017-Dec-13 15:00S 39°50' E 023°01'4 3.7 1007.3 16.9
2017-Dec-13 14:00S 39°52' E 022°57'0 0.0 1006.5 16.4
2017-Dec-13 13:00S 39°52' E 022°57'8 1.6 1005.5 16.1
2017-Dec-13 08:00S 39°59' E 022°52'4 2.1 1001.8 15.8
2017-Dec-13 06:00S 40°03' E 022°52'1 0.8 1001.0 16.0
2017-Dec-13 05:00S 40°04' E 022°51'1 0.8 999.9 16.1
2017-Dec-13 04:00S 40°04' E 022°52'1 0.6 999.3 16.1
2017-Dec-13 03:00S 40°05' E 022°52'0 0.0 999.5 16.1
2017-Dec-13 02:00S 40°05' E 022°52'2 2.0 1000.4 16.1
2017-Dec-13 01:00S 40°07' E 022°53'0 0.0 1001.8 16.1
2017-Dec-13 00:00S 40°07' E 022°53'0 0.0 1003.8 16.1
2017-Dec-12 23:00S 40°07' E 022°53'3 3.0 1005.6 16.1
2017-Dec-12 22:00S 40°08' E 022°56'0 0.0 1007.4 16.1
2017-Dec-12 21:00S 40°08' E 022°56'3 2.6 1008.9 16.1
2017-Dec-12 20:00S 40°10' E 022°58'2 1.5 1009.9 16.1
2017-Dec-12 19:00S 40°11' E 022°59'3 2.6 1010.4 16.1
2017-Dec-12 18:00S 40°14' E 023°00'0 0.0 1010.7 16.2
2017-Dec-12 17:00S 40°14' E 023°00'5 4.8 1011.2 16.2
2017-Dec-12 16:00S 40°18' E 023°03'11 5.4 1010.8 16.3
2017-Dec-12 14:00S 40°28' E 023°10'1110.8 1011.1 16.4
2017-Dec-12 13:00S 40°18' E 023°03'11 2.7 1011.1 16.4
2017-Dec-12 09:00S 40°28' E 023°10'0 0.0 1011.6 16.3
2017-Dec-12 08:00S 40°28' E 023°10'2 2.3 1012.0 16.3
2017-Dec-12 07:00S 40°29' E 023°11'4 3.8 1012.3 16.4
2017-Dec-12 06:00S 40°32' E 023°14'0 0.0 1012.3 16.3
2017-Dec-12 05:00S 40°32' E 023°14'7 7.3 1011.9 16.1
2017-Dec-12 04:00S 40°38' E 023°20'0 0.0 1011.8 16.1
2017-Dec-12 01:00S 40°38' E 023°20'9 8.5 1011.6 16.1
2017-Dec-12 00:00S 40°46' E 023°26'6 5.5 1011.5 16.1
2017-Dec-11 23:00S 40°41' E 023°22'7 3.7 1011.6 16.0
2017-Dec-11 21:00S 40°47' E 023°26'1 1.1 1011.8 16.2
2017-Dec-11 20:00S 40°48' E 023°28'2 1.5 1011.9 16.4
2017-Dec-11 19:00S 40°49' E 023°29'2 1.5 1011.7 16.5
2017-Dec-11 18:00S 40°50' E 023°30'4 1.8 1011.7 16.6
2017-Dec-11 16:00S 40°53' E 023°32'2 2.0 1012.0 16.9
2017-Dec-11 15:00S 40°55' E 023°34'1110.6 1012.2 17.0
2017-Dec-11 14:00S 41°05' E 023°37'10 9.5 1012.7 17.1
2017-Dec-11 13:00S 40°56' E 023°33'12 2.0 1013.2 17.1
2017-Dec-11 07:00S 41°08' E 023°38'1 1.2 1016.1 16.9
2017-Dec-11 06:00S 41°09' E 023°38'1 1.3 1016.5 16.8
2017-Dec-11 05:00S 41°10' E 023°38'1 1.3 1016.9 16.9
2017-Dec-11 04:00S 41°11' E 023°38'1 0.8 1017.2 16.9
2017-Dec-11 03:00S 41°12' E 023°37'2 2.4 1017.3 17.0
2017-Dec-11 02:00S 41°14' E 023°37'2 1.8 1017.7 17.1
2017-Dec-11 01:00S 41°16' E 023°37'4 4.2 1017.8 17.1
2017-Dec-11 00:00S 41°20' E 023°37'4 4.2 1018.5 17.1
2017-Dec-10 23:00S 41°16' E 023°37'4 2.1 1019.0 17.1
2017-Dec-10 21:00S 41°20' E 023°37'2 1.9 1019.6 17.1
2017-Dec-10 20:00S 41°22' E 023°38'0 0.0 1020.1 17.1
2017-Dec-10 19:00S 41°22' E 023°38'1 1.2 1020.4 17.2
2017-Dec-10 18:00S 41°23' E 023°38'4 4.2 1020.4 17.2
2017-Dec-10 17:00S 41°28' E 023°38'1 1.5 1020.4 17.2
2017-Dec-10 16:00S 41°29' E 023°37'3 3.0 1020.4 17.2
2017-Dec-10 15:00S 41°31' E 023°35'1110.8 1020.4 17.2
2017-Dec-10 14:00S 41°41' E 023°28'2 0.3 1021.0 17.2
2017-Dec-10 08:00S 41°43' E 023°28'1 1.3 1022.8 17.2
2017-Dec-10 07:00S 41°44' E 023°27'3 2.9 1022.8 17.2
2017-Dec-10 06:00S 41°46' E 023°24'2 1.8 1022.7 17.2
2017-Dec-10 05:00S 41°47' E 023°22'3 3.5 1022.5 17.2
2017-Dec-10 04:00S 41°50' E 023°20'0 0.0 1022.5 17.2
2017-Dec-10 03:00S 41°50' E 023°20'0 0.0 1022.5 17.3
2017-Dec-10 02:00S 41°50' E 023°20'3 2.6 1022.5 17.2
2017-Dec-10 01:00S 41°52' E 023°19'6 5.8 1022.8 17.2
2017-Dec-10 00:00S 41°58' E 023°16'6 5.8 1023.2 17.2
2017-Dec-09 23:00S 41°52' E 023°19'6 2.9 1023.6 17.2
2017-Dec-09 21:00S 41°58' E 023°16'4 4.0 1024.3 17.3
2017-Dec-09 20:00S 42°01' E 023°13'2 1.8 1024.4 17.3
2017-Dec-09 19:00S 42°02' E 023°11'7 2.5 1024.1 17.3
2017-Dec-09 16:00S 42°08' E 023°05'0 0.0 1023.5 17.4
2017-Dec-09 15:00S 42°08' E 023°05'1010.4 1023.1 17.4
2017-Dec-09 14:00S 42°16' E 022°55'0 0.0 1022.7 17.4
2017-Dec-09 13:00S 42°16' E 022°55'0 0.0 1022.5 17.4
2017-Dec-09 09:00S 42°16' E 022°55'3 3.5 1021.2 17.3
2017-Dec-09 08:00S 42°19' E 022°53'1 0.4 1020.8 17.2
2017-Dec-09 06:00S 42°19' E 022°52'3 2.6 1019.2 17.2
2017-Dec-09 05:00S 42°21' E 022°50'3 2.6 1018.2 17.3
2017-Dec-09 04:00S 42°23' E 022°49'0 0.0 1017.1 17.3
2017-Dec-09 03:00S 42°23' E 022°49'1 1.5 1016.1 17.3
2017-Dec-09 02:00S 42°25' E 022°48'4 3.7 1015.1 17.3
2017-Dec-09 01:00S 42°28' E 022°45'7 6.5 1014.3 17.4
2017-Dec-09 00:00S 42°32' E 022°39'1 0.5 1013.6 17.4
2017-Dec-08 21:00S 42°33' E 022°37'3 2.9 1011.4 17.6
2017-Dec-08 20:00S 42°34' E 022°34'4 4.0 1011.1 17.7
2017-Dec-08 19:00S 42°35' E 022°28'0 0.0 1010.5 17.7
2017-Dec-08 18:00S 42°35' E 022°28'2 1.8 1010.2 17.6
2017-Dec-08 17:00S 42°35' E 022°26'0 0.0 1010.2 17.6
2017-Dec-08 16:00S 42°35' E 022°26'3 2.7 1010.4 17.6
2017-Dec-08 15:00S 42°35' E 022°22'4 4.0 1010.7 17.6
2017-Dec-08 14:00S 42°35' E 022°17'9 8.9 1011.3 17.8
2017-Dec-08 13:00S 42°32' E 022°05'2 0.5 1011.9 17.8
2017-Dec-08 08:00S 42°31' E 022°02'1 1.3 1016.1 17.6
2017-Dec-08 07:00S 42°31' E 022°01'3 2.7 1016.6 17.6
2017-Dec-08 06:00S 42°31' E 021°57'3 2.9 1016.8 17.6
2017-Dec-08 05:00S 42°29' E 021°53'0 0.0 1017.2 17.6
2017-Dec-08 04:00S 42°29' E 021°53'3 2.5 1017.7 17.6
2017-Dec-08 03:00S 42°28' E 021°50'0 0.0 1018.4 17.6
2017-Dec-08 02:00S 42°28' E 021°50'2 2.3 1018.8 17.6
2017-Dec-08 01:00S 42°28' E 021°47'4 4.4 1019.5 17.6
2017-Dec-08 00:00S 42°26' E 021°42'1 0.6 1020.4 17.4
2017-Dec-07 22:00S 42°25' E 021°41'0 0.0 1021.4 17.6
2017-Dec-07 21:00S 42°25' E 021°41'3 2.5 1021.6 17.6
2017-Dec-07 20:00S 42°23' E 021°39'0 0.4 1022.0 17.6
2017-Dec-07 19:00S 42°23' E 021°38'3 3.0 1021.9 17.6
2017-Dec-07 18:00S 42°20' E 021°36'0 0.0 1021.9 17.7
2017-Dec-07 17:00S 42°20' E 021°36'2 1.1 1022.2 17.8
2017-Dec-07 15:00S 42°19' E 021°34'10 5.1 1023.3 17.7
2017-Dec-07 13:00S 42°11' E 021°26'8 8.0 1024.5 17.1
2017-Dec-07 12:00S 42°17' E 021°32'8 2.7 1025.0 16.8
2017-Dec-07 09:00S 42°11' E 021°26'1 1.5 1025.6 16.6
2017-Dec-07 08:00S 42°10' E 021°25'1 1.3 1025.5 16.4
2017-Dec-07 07:00S 42°08' E 021°24'3 3.3 1025.8 15.9
2017-Dec-07 06:00S 42°05' E 021°22'3 3.0 1026.4 15.8
2017-Dec-07 05:00S 42°02' E 021°22'0 0.0 1026.5 15.9
2017-Dec-07 04:00S 42°02' E 021°22'2 1.9 1026.4 16.1
2017-Dec-07 03:00S 42°01' E 021°22'0 0.0 1026.7 16.2
2017-Dec-07 02:00S 42°01' E 021°22'9 8.7 1026.9 16.3
2017-Dec-07 01:00S 41°52' E 021°19'6 5.6 1026.6 16.4
2017-Dec-07 00:00S 41°58' E 021°20'7 2.3 1027.5 16.4
2017-Dec-06 21:00S 41°51' E 021°18'2 1.9 1028.2 16.8
2017-Dec-06 20:00S 41°49' E 021°19'4 3.7 1028.0 16.9
2017-Dec-06 19:00S 41°46' E 021°17'0 0.0 1028.0 17.0
2017-Dec-06 18:00S 41°46' E 021°17'3 3.0 1027.7 17.1
2017-Dec-06 17:00S 41°43' E 021°18'3 1.5 1027.6 16.7
2017-Dec-06 15:00S 41°40' E 021°19'4 3.8 1027.5 16.9
2017-Dec-06 14:00S 41°36' E 021°20'0 0.0 1027.8 17.2
2017-Dec-06 13:00S 41°36' E 021°20'13 1.9 1028.5 17.1
2017-Dec-06 06:00S 41°25' E 021°31'2 1.1 1030.0 15.7
2017-Dec-06 04:00S 41°23' E 021°32'2 1.8 1029.7 15.6
2017-Dec-06 03:00S 41°22' E 021°34'3 2.8 1029.5 15.7
2017-Dec-06 02:00S 41°20' E 021°36'0 0.0 1029.4 15.8
2017-Dec-06 01:00S 41°20' E 021°36'0 0.0 1029.4 15.9
2017-Dec-06 00:00S 41°20' E 021°36'7 2.4 1029.9 15.4
2017-Dec-05 21:00S 41°14' E 021°43'6 5.8 1030.3 15.6
2017-Dec-05 20:00S 41°11' E 021°49'0 0.0 1030.2 15.6
2017-Dec-05 19:00S 41°11' E 021°49'4 3.7 1029.8 15.7
2017-Dec-05 18:00S 41°10' E 021°53'0 0.0 1029.5 15.7
2017-Dec-05 17:00S 41°10' E 021°53'1 1.5 1029.1 15.7
2017-Dec-05 16:00S 41°10' E 021°55'4 3.6 1028.7 15.8
2017-Dec-05 15:00S 41°10' E 022°00'1 1.1 1028.6 15.8
2017-Dec-05 14:00S 41°09' E 022°01'0 0.0 1028.2 15.8
2017-Dec-05 13:00S 41°09' E 022°01'   1028.1 15.8

Dump ship's entire track history